Time;durP1;ratioP1;P1;durP2;ratioP2;P2;SDS_P1;SDS_P2;PMS_P1;PMS_P2;Temp;Humidity;BMP_temperature;BMP_pressure;BME280_temperature;BME280_humidity;BME280_pressure;Samples;Min_cycle;Max_cycle;Signal;HPM_P1;HPM_P2
2022/04/05 00:02:19;;;;;;;2.20;1.17;;;22.80;31.00;;;;;;5012889;28;20465;-63
2022/04/05 00:04:45;;;;;;;2.17;1.05;;;22.80;30.90;;;;;;5012873;28;20397;-64
2022/04/05 00:07:10;;;;;;;1.40;1.00;;;22.80;31.00;;;;;;5013547;28;20801;-63
2022/04/05 00:09:36;;;;;;;1.30;1.10;;;22.80;30.90;;;;;;5012287;28;20385;-63
2022/04/05 00:12:02;;;;;;;1.50;1.10;;;22.80;30.90;;;;;;5011711;28;20892;-63
2022/04/05 00:14:28;;;;;;;1.48;1.08;;;22.80;31.60;;;;;;5013799;28;20480;-64
2022/04/05 00:16:53;;;;;;;1.87;1.10;;;22.80;31.00;;;;;;5012802;28;20877;-64
2022/04/05 00:22:03;;;;;;;1.77;1.40;;;22.70;30.90;;;;;;5012463;28;20423;-64
2022/04/05 00:24:29;;;;;;;1.80;1.00;;;22.80;31.00;;;;;;5012801;28;20812;-64
2022/04/05 00:26:55;;;;;;;1.88;1.17;;;22.80;30.90;;;;;;5027547;28;20404;-64
2022/04/05 00:29:22;;;;;;;1.70;1.17;;;22.80;31.00;;;;;;5027864;28;20397;-64
2022/04/05 00:31:49;;;;;;;1.50;1.10;;;22.80;31.00;;;;;;5012117;28;20381;-65
2022/04/05 00:34:14;;;;;;;1.50;1.00;;;22.80;30.90;;;;;;5012581;28;20388;-63
2022/04/05 00:36:40;;;;;;;1.30;1.20;;;22.70;30.90;;;;;;5027827;28;20793;-64
2022/04/05 00:39:05;;;;;;;1.98;1.20;;;22.70;30.90;;;;;;5027584;28;20442;-64
2022/04/05 00:41:31;;;;;;;1.50;1.00;;;22.70;30.80;;;;;;5027613;28;20418;-63
2022/04/05 00:43:57;;;;;;;1.33;1.20;;;22.80;30.90;;;;;;5011979;28;20397;-63
2022/04/05 00:46:22;;;;;;;1.93;1.10;;;22.80;30.90;;;;;;5012428;28;20393;-63
2022/04/05 00:48:50;;;;;;;1.75;1.20;;;22.70;30.90;;;;;;5012325;28;20385;-63
2022/04/05 00:51:18;;;;;;;1.45;1.00;;;22.70;30.90;;;;;;5027439;28;20432;-63
2022/04/05 00:53:50;;;;;;;1.75;1.20;;;22.70;30.80;;;;;;5026968;28;20390;-63
2022/04/05 00:56:17;;;;;;;1.65;1.20;;;22.70;30.80;;;;;;5011729;28;20475;-63
2022/04/05 00:58:47;;;;;;;2.15;1.33;;;22.70;30.80;;;;;;5012009;28;20399;-63
2022/04/05 01:01:16;;;;;;;1.40;1.30;;;22.70;30.80;;;;;;5011937;28;20417;-64
2022/04/05 01:03:49;;;;;;;2.20;1.10;;;22.70;30.80;;;;;;5027084;28;20476;-64
2022/04/05 01:06:17;;;;;;;1.75;1.15;;;22.70;30.90;;;;;;5012093;28;20388;-64
2022/04/05 01:08:47;;;;;;;1.30;1.13;;;22.70;30.90;;;;;;5027010;28;20455;-64
2022/04/05 01:11:12;;;;;;;1.40;1.00;;;22.70;30.80;;;;;;5011243;28;20381;-64
2022/04/05 01:13:38;;;;;;;2.17;1.10;;;22.70;30.80;;;;;;5012019;28;20393;-64
2022/04/05 01:16:04;;;;;;;1.70;1.10;;;22.70;30.90;;;;;;5026641;28;20884;-63
2022/04/05 01:18:30;;;;;;;1.88;1.15;;;22.70;30.80;;;;;;5011886;28;20435;-64
2022/04/05 01:20:56;;;;;;;1.70;1.35;;;22.70;30.80;;;;;;5026766;28;20429;-64
2022/04/05 01:23:23;;;;;;;1.77;1.13;;;22.70;30.80;;;;;;5026859;28;20459;-64
2022/04/05 01:25:49;;;;;;;1.50;1.30;;;22.70;30.70;;;;;;5011499;28;20753;-64
2022/04/05 01:28:15;;;;;;;1.92;1.10;;;22.60;30.90;;;;;;5011751;28;20399;-64
2022/04/05 01:30:41;;;;;;;2.20;1.10;;;22.60;30.80;;;;;;5026979;28;20423;-64
2022/04/05 01:33:07;;;;;;;1.60;1.10;;;22.60;30.80;;;;;;5011715;28;20396;-64
2022/04/05 01:35:34;;;;;;;5.20;1.20;;;22.60;30.80;;;;;;5011779;28;20403;-64
2022/04/05 01:38:03;;;;;;;2.20;1.05;;;22.60;30.70;;;;;;5026302;28;20466;-63
2022/04/05 01:40:28;;;;;;;1.25;1.00;;;22.70;30.80;;;;;;5026740;28;20404;-63
2022/04/05 01:42:55;;;;;;;1.88;1.23;;;22.60;30.80;;;;;;5011585;28;20400;-63
2022/04/05 01:45:20;;;;;;;1.88;1.30;;;22.60;30.80;;;;;;5011499;28;20866;-63
2022/04/05 01:47:46;;;;;;;2.23;1.20;;;22.60;30.90;;;;;;5011345;28;20428;-64
2022/04/05 01:50:12;;;;;;;2.15;1.33;;;22.60;30.80;;;;;;5011285;28;20389;-63
2022/04/05 01:52:38;;;;;;;1.37;1.13;;;22.60;30.90;;;;;;5026685;28;20432;-64
2022/04/05 01:55:08;;;;;;;1.42;1.10;;;22.60;30.90;;;;;;5026708;28;21271;-64
2022/04/05 01:57:34;;;;;;;2.35;1.20;;;22.60;30.80;;;;;;5027512;28;20401;-63
2022/04/05 02:00:01;;;;;;;1.52;1.08;;;22.60;30.70;;;;;;5010837;28;20391;-64
2022/04/05 02:02:27;;;;;;;1.10;0.90;;;22.60;30.80;;;;;;5011380;28;20507;-64
2022/04/05 02:04:52;;;;;;;1.83;1.20;;;22.60;30.80;;;;;;5011366;28;20421;-64
2022/04/05 02:07:19;;;;;;;1.35;1.10;;;22.60;30.80;;;;;;5011407;28;20420;-63
2022/04/05 02:09:47;;;;;;;1.88;1.35;;;22.60;30.80;;;;;;5025725;28;20451;-64
2022/04/05 02:12:13;;;;;;;1.42;1.20;;;22.60;30.80;;;;;;5010701;28;20880;-64
2022/04/05 02:14:39;;;;;;;1.50;1.10;;;22.60;30.80;;;;;;5010609;28;20397;-64
2022/04/05 02:17:06;;;;;;;1.58;1.20;;;22.60;30.80;;;;;;5011347;28;20467;-64
2022/04/05 02:19:32;;;;;;;1.43;1.13;;;22.60;30.70;;;;;;5011266;28;20389;-64
2022/04/05 02:21:57;;;;;;;1.58;1.05;;;22.60;30.80;;;;;;5026001;28;20428;-64
2022/04/05 02:24:23;;;;;;;1.37;1.00;;;22.60;30.90;;;;;;5026416;28;20727;-64
2022/04/05 02:26:49;;;;;;;1.20;1.00;;;22.60;30.80;;;;;;5011308;28;20405;-65
2022/04/05 02:29:15;;;;;;;1.50;0.90;;;22.50;30.90;;;;;;5011284;28;20477;-65
2022/04/05 02:31:41;;;;;;;1.30;1.00;;;22.60;30.90;;;;;;5011347;28;20400;-64
2022/04/05 02:34:08;;;;;;;1.20;1.10;;;22.60;30.90;;;;;;5010747;28;20752;-64
2022/04/05 02:36:33;;;;;;;1.30;1.00;;;22.60;30.90;;;;;;5014561;28;20489;-64
2022/04/05 02:39:00;;;;;;;1.35;1.20;;;22.60;30.80;;;;;;5014692;28;20419;-64
2022/04/05 02:41:26;;;;;;;1.67;1.17;;;22.50;30.80;;;;;;5014583;28;20416;-64
2022/04/05 02:43:52;;;;;;;1.65;1.08;;;22.50;30.80;;;;;;5014373;28;20908;-64
2022/04/05 02:46:18;;;;;;;1.30;0.90;;;22.50;30.80;;;;;;5029861;28;20496;-64
2022/04/05 02:48:45;;;;;;;1.40;1.17;;;22.60;30.80;;;;;;5014282;28;20415;-64
2022/04/05 02:51:13;;;;;;;2.10;1.20;;;22.50;30.80;;;;;;5013698;28;21328;-64
2022/04/05 02:53:40;;;;;;;1.55;1.20;;;22.50;30.70;;;;;;5014450;28;20756;-64
2022/04/05 02:56:07;;;;;;;1.67;1.20;;;22.50;30.80;;;;;;5013854;28;20396;-64
2022/04/05 02:58:34;;;;;;;1.73;1.03;;;22.50;30.80;;;;;;5014309;28;20500;-64
2022/04/05 03:01:00;;;;;;;1.50;1.30;;;22.50;30.70;;;;;;5029193;28;20487;-64
2022/04/05 03:03:26;;;;;;;1.95;1.15;;;22.50;30.80;;;;;;5014328;28;20396;-64
2022/04/05 03:05:51;;;;;;;1.53;1.20;;;22.50;30.70;;;;;;5013547;28;20444;-64
2022/04/05 03:08:17;;;;;;;1.58;1.10;;;22.50;30.70;;;;;;5013914;28;20425;-64
2022/04/05 03:10:43;;;;;;;1.85;1.30;;;22.50;30.70;;;;;;5029341;28;20408;-64
2022/04/05 03:13:08;;;;;;;2.00;1.40;;;22.40;30.80;;;;;;5014062;28;20385;-64
2022/04/05 03:15:34;;;;;;;1.30;1.13;;;22.50;30.90;;;;;;5014148;28;21003;-64
2022/04/05 03:17:59;;;;;;;1.45;1.13;;;22.50;30.90;;;;;;5028758;28;20383;-64
2022/04/05 03:20:25;;;;;;;1.80;1.00;;;22.40;30.80;;;;;;5029039;28;20481;-65
2022/04/05 03:22:52;;;;;;;2.20;1.20;;;22.50;30.90;;;;;;5013885;28;20385;-64
2022/04/05 03:25:18;;;;;;;1.75;1.23;;;22.50;30.90;;;;;;5013434;28;20392;-64
2022/04/05 03:27:44;;;;;;;1.50;1.30;;;22.50;30.90;;;;;;5013280;28;20407;-65
2022/04/05 03:30:13;;;;;;;2.20;1.30;;;22.40;30.80;;;;;;5012431;28;20476;-64
2022/04/05 03:32:38;;;;;;;1.30;1.20;;;22.40;30.80;;;;;;5028656;28;20889;-64
2022/04/05 03:35:05;;;;;;;1.70;1.35;;;22.40;30.80;;;;;;5013598;28;20404;-64
2022/04/05 03:37:32;;;;;;;1.90;1.27;;;22.40;30.80;;;;;;5013671;28;20385;-64
2022/04/05 03:39:57;;;;;;;1.40;1.30;;;22.40;30.80;;;;;;5028005;28;20955;-64
2022/04/05 03:42:23;;;;;;;1.60;1.30;;;22.40;30.80;;;;;;5013323;28;20564;-64
2022/04/05 03:44:49;;;;;;;1.63;1.42;;;22.40;30.80;;;;;;5013426;28;20389;-64
2022/04/05 03:47:15;;;;;;;2.47;1.10;;;22.40;30.90;;;;;;5027706;28;20495;-64
2022/04/05 03:49:41;;;;;;;1.77;1.30;;;22.40;30.80;;;;;;5013380;28;20472;-64
2022/04/05 03:52:07;;;;;;;1.75;1.30;;;22.40;30.90;;;;;;5012806;28;20400;-64
2022/04/05 03:54:33;;;;;;;1.60;1.20;;;22.40;30.80;;;;;;5013296;28;20912;-64
2022/04/05 03:56:58;;;;;;;1.40;1.20;;;22.40;30.90;;;;;;5012898;28;20397;-64
2022/04/05 03:59:24;;;;;;;1.70;1.20;;;22.40;30.90;;;;;;5013191;28;20416;-64
2022/04/05 04:01:50;;;;;;;2.37;1.13;;;22.40;30.90;;;;;;5012620;28;20478;-64
2022/04/05 04:04:15;;;;;;;1.90;1.08;;;22.40;31.00;;;;;;5012896;28;20480;-64
2022/04/05 04:06:41;;;;;;;1.53;1.10;;;22.40;31.00;;;;;;5013006;28;20403;-64
2022/04/05 04:09:06;;;;;;;1.83;1.10;;;22.40;31.00;;;;;;5027924;28;20397;-64
2022/04/05 04:11:32;;;;;;;1.75;1.27;;;22.40;31.10;;;;;;5028165;28;20408;-64
2022/04/05 04:13:58;;;;;;;1.40;1.00;;;22.40;30.90;;;;;;5012286;28;20404;-65
2022/04/05 04:16:24;;;;;;;1.95;1.40;;;22.40;30.90;;;;;;5013027;28;20435;-64
2022/04/05 04:18:50;;;;;;;2.72;1.52;;;22.40;33.00;;;;;;5028154;28;20397;-63
2022/04/05 04:21:15;;;;;;;2.25;1.42;;;22.50;31.80;;;;;;5028045;28;20420;-64
2022/04/05 04:23:41;;;;;;;2.00;1.50;;;22.40;33.70;;;;;;5012724;28;20453;-63
2022/04/05 04:26:07;;;;;;;1.83;1.40;;;22.40;33.90;;;;;;5013273;28;20471;-63
2022/04/05 04:28:33;;;;;;;2.10;1.55;;;22.50;33.70;;;;;;5014676;28;20429;-64
2022/04/05 04:31:01;;;;;;;2.25;1.20;;;22.50;33.60;;;;;;5009154;28;20394;-65
2022/04/05 04:33:27;;;;;;;3.50;1.50;;;22.50;33.50;;;;;;5024233;28;20480;-64
2022/04/05 04:35:53;;;;;;;2.17;1.20;;;22.50;33.30;;;;;;4995728;28;20479;-64
2022/04/05 04:38:19;;;;;;;1.90;1.38;;;22.50;33.50;;;;;;5006536;28;20395;-63
2022/04/05 04:40:46;;;;;;;1.83;1.17;;;22.50;33.60;;;;;;5018008;28;20463;-64
2022/04/05 04:43:14;;;;;;;1.90;1.40;;;22.50;33.50;;;;;;4998647;28;20403;-63
2022/04/05 04:45:40;;;;;;;2.78;1.17;;;22.50;33.00;;;;;;5009860;28;20416;-63
2022/04/05 04:48:06;;;;;;;1.70;1.30;;;22.50;33.20;;;;;;5005626;28;20395;-64
2022/04/05 04:50:31;;;;;;;1.77;1.23;;;22.50;33.40;;;;;;5009578;28;20393;-64
2022/04/05 04:52:57;;;;;;;2.72;1.20;;;22.50;33.40;;;;;;5008088;28;20944;-64
2022/04/05 04:55:24;;;;;;;1.70;1.00;;;22.50;33.70;;;;;;5008648;28;20481;-63
2022/04/05 04:57:51;;;;;;;3.88;1.30;;;22.50;32.90;;;;;;5011916;28;20443;-64
2022/04/05 05:00:17;;;;;;;2.45;1.13;;;22.50;33.00;;;;;;5011425;28;20914;-64
2022/04/05 05:02:50;;;;;;;2.97;1.33;;;22.60;34.30;;;;;;5012027;28;20514;-64
2022/04/05 05:05:17;;;;;;;3.30;1.38;;;22.60;34.30;;;;;;5012004;28;20888;-64
2022/04/05 05:07:44;;;;;;;3.83;1.50;;;22.60;34.10;;;;;;5011577;28;20425;-63
2022/04/05 05:10:11;;;;;;;3.17;1.50;;;22.70;35.20;;;;;;5011369;28;20399;-64
2022/04/05 05:12:40;;;;;;;3.67;1.45;;;22.70;36.10;;;;;;5011758;28;20393;-63
2022/04/05 05:15:08;;;;;;;3.70;1.42;;;22.70;35.50;;;;;;5011838;28;20400;-63
2022/04/05 05:17:34;;;;;;;7.07;1.60;;;22.80;34.80;;;;;;5011512;28;20396;-63
2022/04/05 05:20:00;;;;;;;5.85;1.73;;;22.80;35.70;;;;;;5011114;28;20420;-65
2022/04/05 05:22:26;;;;;;;3.90;1.67;;;22.90;35.70;;;;;;5011792;28;20590;-63
2022/04/05 05:24:51;;;;;;;5.43;1.80;;;22.90;36.40;;;;;;5000837;28;20395;-65
2022/04/05 05:27:17;;;;;;;4.53;1.50;;;22.90;37.90;;;;;;4991154;28;20426;-65
2022/04/05 05:29:43;;;;;;;5.57;1.50;;;22.90;36.30;;;;;;4991770;28;20395;-66
2022/04/05 05:32:08;;;;;;;3.37;1.50;;;22.80;37.40;;;;;;4991495;28;20942;-66
2022/04/05 05:34:34;;;;;;;4.18;1.60;;;22.80;36.80;;;;;;5005271;28;20387;-65
2022/04/05 05:37:00;;;;;;;4.23;1.90;;;22.80;36.40;;;;;;5010037;28;20393;-64
2022/04/05 05:39:25;;;;;;;5.03;1.48;;;22.80;35.90;;;;;;5011342;28;20385;-66
2022/04/05 05:41:51;;;;;;;5.28;1.60;;;22.80;35.90;;;;;;5011028;28;20422;-64
2022/04/05 05:44:17;;;;;;;5.17;1.70;;;22.80;36.20;;;;;;5010968;28;20419;-65
2022/04/05 05:46:42;;;;;;;3.38;1.73;;;22.90;35.40;;;;;;5010038;28;20455;-64
2022/04/05 05:49:08;;;;;;;5.23;1.60;;;22.90;35.00;;;;;;5010966;28;20455;-64
2022/04/05 05:51:34;;;;;;;4.40;1.38;;;22.90;35.20;;;;;;5011236;28;20401;-64
2022/04/05 05:53:59;;;;;;;3.13;1.30;;;22.90;35.00;;;;;;5009716;28;20457;-63
2022/04/05 05:56:25;;;;;;;5.38;1.50;;;22.90;34.30;;;;;;5011106;28;20487;-65
2022/04/05 05:58:51;;;;;;;3.60;1.50;;;22.80;34.20;;;;;;5010975;28;20485;-64
2022/04/05 06:01:17;;;;;;;2.75;1.30;;;22.80;33.50;;;;;;5011269;28;20428;-66
2022/04/05 06:03:43;;;;;;;2.63;1.40;;;22.80;33.00;;;;;;5009822;28;20388;-65
2022/04/05 06:06:09;;;;;;;2.05;1.38;;;22.70;32.80;;;;;;5026275;28;20913;-65
2022/04/05 06:08:34;;;;;;;2.37;1.80;;;22.70;33.00;;;;;;5008584;28;20472;-66
2022/04/05 06:11:01;;;;;;;2.60;1.40;;;22.70;32.70;;;;;;5006048;28;20405;-66
2022/04/05 06:13:27;;;;;;;2.75;1.30;;;22.70;32.50;;;;;;5005741;28;20381;-65
2022/04/05 06:15:53;;;;;;;2.80;1.30;;;22.70;32.40;;;;;;5005485;28;20393;-65
2022/04/05 06:18:18;;;;;;;2.63;1.20;;;22.70;32.20;;;;;;5005179;28;20426;-66
2022/04/05 06:20:44;;;;;;;2.20;1.30;;;22.70;32.20;;;;;;5002225;28;20440;-66
2022/04/05 06:23:10;;;;;;;2.38;1.15;;;22.70;32.10;;;;;;5002934;28;20420;-65
2022/04/05 06:25:37;;;;;;;3.35;1.40;;;22.70;32.00;;;;;;5012221;28;20396;-65
2022/04/05 06:28:06;;;;;;;2.40;1.23;;;22.60;31.80;;;;;;5014238;28;20432;-66
2022/04/05 06:30:33;;;;;;;1.95;1.40;;;22.70;31.80;;;;;;5014567;28;20392;-65
2022/04/05 06:33:09;;;;;;;2.60;1.65;;;22.60;31.70;;;;;;5014546;28;20400;-66
2022/04/05 06:35:37;;;;;;;1.75;1.30;;;22.60;31.60;;;;;;5029633;28;20403;-65
2022/04/05 06:38:03;;;;;;;2.00;1.10;;;22.60;31.60;;;;;;5014094;28;20446;-64
2022/04/05 06:40:29;;;;;;;2.53;1.30;;;22.60;31.50;;;;;;5013979;28;20429;-64
2022/04/05 06:42:55;;;;;;;3.40;1.33;;;22.60;31.50;;;;;;5014338;28;20906;-65
2022/04/05 06:45:22;;;;;;;2.17;1.55;;;22.60;31.50;;;;;;5014655;28;20420;-65
2022/04/05 06:47:48;;;;;;;2.03;1.30;;;22.60;31.50;;;;;;5014359;28;20400;-66
2022/04/05 06:50:20;;;;;;;2.13;1.35;;;22.50;31.40;;;;;;5013894;28;20471;-64
2022/04/05 06:52:46;;;;;;;2.00;1.38;;;22.50;31.30;;;;;;5014161;28;20396;-65
2022/04/05 06:55:12;;;;;;;1.85;1.40;;;22.50;31.30;;;;;;5013826;28;20504;-65
2022/04/05 06:57:39;;;;;;;1.98;1.30;;;22.50;31.40;;;;;;5014094;28;20819;-66
2022/04/05 07:00:06;;;;;;;2.20;1.30;;;22.50;31.40;;;;;;5013209;28;20511;-66
2022/04/05 07:02:32;;;;;;;2.00;1.30;;;22.50;31.40;;;;;;5013985;28;20431;-65
2022/04/05 07:04:58;;;;;;;2.67;1.50;;;22.50;31.40;;;;;;5013782;28;20380;-66
2022/04/05 07:07:24;;;;;;;2.77;1.43;;;22.50;31.30;;;;;;5013694;28;20404;-65
2022/04/05 07:09:50;;;;;;;4.47;1.77;;;22.50;31.40;;;;;;5013643;28;20403;-66
2022/04/05 07:12:15;;;;;;;2.77;1.77;;;22.50;31.60;;;;;;5013701;28;20397;-65
2022/04/05 07:14:41;;;;;;;2.35;1.40;;;22.50;31.70;;;;;;5013850;28;20897;-67
2022/04/05 07:17:07;;;;;;;3.30;1.37;;;22.50;31.90;;;;;;5013664;28;20397;-66
2022/04/05 07:19:33;;;;;;;2.08;1.40;;;22.50;31.60;;;;;;5013942;28;20388;-66
2022/04/05 07:21:59;;;;;;;2.47;1.40;;;22.50;31.70;;;;;;5013097;28;20421;-66
2022/04/05 07:24:26;;;;;;;2.63;1.42;;;22.50;31.90;;;;;;5013412;28;20385;-66
2022/04/05 07:26:54;;;;;;;2.15;1.30;;;22.40;31.90;;;;;;5013573;28;20436;-65
2022/04/05 07:29:19;;;;;;;4.10;1.40;;;22.50;31.70;;;;;;5013404;28;20385;-65
2022/04/05 07:31:45;;;;;;;3.70;1.50;;;22.50;31.80;;;;;;5013383;28;20411;-66
2022/04/05 07:34:11;;;;;;;2.20;1.40;;;22.60;30.90;;;;;;5008569;28;20429;-65
2022/04/05 07:36:37;;;;;;;4.30;1.33;;;22.50;30.50;;;;;;4998434;28;20398;-66
2022/04/05 07:39:03;;;;;;;3.43;1.60;;;22.40;31.50;;;;;;5010564;28;20416;-66
2022/04/05 07:41:29;;;;;;;5.15;1.73;;;22.40;32.10;;;;;;5013327;28;20892;-66
2022/04/05 07:43:54;;;;;;;2.65;1.60;;;22.40;33.20;;;;;;5010505;28;20412;-66
2022/04/05 07:46:20;;;;;;;4.32;1.80;;;22.40;32.70;;;;;;4999928;28;20746;-66
2022/04/05 07:48:47;;;;;;;4.37;1.50;;;22.40;32.90;;;;;;5001629;28;20401;-67
2022/04/05 07:51:13;;;;;;;2.90;1.40;;;22.40;33.30;;;;;;5002620;28;20896;-67
2022/04/05 07:53:39;;;;;;;4.40;1.90;;;22.40;32.80;;;;;;5001303;28;20406;-66
2022/04/05 07:56:05;;;;;;;2.87;1.60;;;22.40;32.60;;;;;;5001329;28;20467;-66
2022/04/05 07:58:30;;;;;;;3.17;1.80;;;22.40;32.40;;;;;;5002302;28;20395;-66
2022/04/05 08:00:56;;;;;;;4.07;1.77;;;22.40;32.30;;;;;;4998701;28;20420;-68
2022/04/05 08:03:22;;;;;;;3.35;1.70;;;22.40;32.50;;;;;;4993498;28;20421;-67
2022/04/05 08:05:49;;;;;;;3.17;1.75;;;22.40;33.00;;;;;;4993374;28;20882;-68
2022/04/05 08:08:15;;;;;;;3.10;1.80;;;22.40;31.60;;;;;;4992781;28;20541;-68
2022/04/05 08:10:41;;;;;;;3.17;1.88;;;22.40;31.70;;;;;;4995444;28;20447;-68
2022/04/05 08:13:07;;;;;;;2.95;1.80;;;22.40;32.00;;;;;;5002206;28;20840;-68
2022/04/05 08:15:32;;;;;;;3.20;1.92;;;22.40;31.50;;;;;;5000548;28;20897;-67
2022/04/05 08:17:58;;;;;;;2.80;1.77;;;22.40;31.70;;;;;;5001429;28;20405;-67
2022/04/05 08:20:24;;;;;;;3.17;1.65;;;22.40;31.60;;;;;;5000830;28;20390;-67
2022/04/05 08:22:50;;;;;;;2.92;1.92;;;22.40;31.40;;;;;;5014990;28;20410;-67
2022/04/05 08:25:17;;;;;;;3.30;1.80;;;22.40;31.80;;;;;;5002913;28;20391;-67
2022/04/05 08:27:45;;;;;;;2.88;1.77;;;22.40;31.50;;;;;;5002511;28;20980;-68
2022/04/05 08:30:15;;;;;;;2.67;1.83;;;22.40;31.60;;;;;;4999545;28;20397;-66
2022/04/05 08:32:42;;;;;;;2.22;1.77;;;22.40;31.60;;;;;;5008752;28;20404;-68
2022/04/05 08:35:14;;;;;;;3.50;1.50;;;22.40;31.20;;;;;;5014191;28;20439;-67
2022/04/05 08:37:41;;;;;;;2.40;1.60;;;22.40;31.30;;;;;;5027785;28;20454;-67
2022/04/05 08:40:08;;;;;;;3.30;1.80;;;22.30;31.30;;;;;;5012193;28;20388;-67
2022/04/05 08:42:35;;;;;;;3.25;1.88;;;22.30;31.50;;;;;;5011779;28;20428;-67
2022/04/05 08:45:06;;;;;;;2.60;1.75;;;22.20;31.70;;;;;;5011832;28;20875;-67
2022/04/05 08:47:34;;;;;;;3.50;1.90;;;22.20;31.70;;;;;;5012312;28;20874;-67
2022/04/05 08:50:03;;;;;;;3.35;1.80;;;22.00;31.80;;;;;;5012124;28;20381;-67
2022/04/05 08:52:29;;;;;;;4.03;1.80;;;22.00;32.00;;;;;;5011872;28;20392;-68
2022/04/05 08:54:55;;;;;;;2.97;1.83;;;22.00;32.30;;;;;;5011771;28;20389;-68
2022/04/05 08:57:21;;;;;;;3.20;1.80;;;22.00;31.80;;;;;;5011879;28;20389;-67
2022/04/05 08:59:48;;;;;;;3.42;1.70;;;22.00;32.10;;;;;;5026282;28;20397;-67
2022/04/05 09:02:14;;;;;;;2.45;1.90;;;22.00;31.80;;;;;;5010207;28;20908;-66
2022/04/05 09:04:40;;;;;;;2.55;1.50;;;22.00;31.90;;;;;;5026831;28;20951;-66
2022/04/05 09:07:24;;;;;;;3.28;1.80;;;22.00;31.90;;;;;;5011340;28;20459;-66
2022/04/05 09:10:10;;;;;;;2.65;2.05;;;22.00;32.10;;;;;;5011564;28;20492;-67
2022/04/05 09:12:43;;;;;;;4.32;1.80;;;22.10;32.90;;;;;;5011690;28;20389;-67
2022/04/05 09:15:24;;;;;;;3.33;2.60;;;22.10;33.30;;;;;;5011821;28;20388;-66
2022/04/05 09:17:50;;;;;;;3.27;2.00;;;22.30;36.50;;;;;;5011478;28;20953;-67
2022/04/05 09:20:18;;;;;;;6.57;1.70;;;22.40;36.90;;;;;;5011040;28;20388;-66
2022/04/05 09:22:44;;;;;;;4.95;1.80;;;22.40;34.60;;;;;;5011401;28;20483;-68
2022/04/05 09:25:12;;;;;;;5.90;1.80;;;22.40;35.80;;;;;;5011104;28;20788;-66
2022/04/05 09:27:57;;;;;;;4.87;1.70;;;22.40;35.00;;;;;;5011411;28;20395;-67
2022/04/05 09:30:31;;;;;;;4.65;1.80;;;22.40;35.00;;;;;;5011068;28;20408;-66
2022/04/05 09:32:58;;;;;;;3.97;1.80;;;22.40;35.00;;;;;;5011561;28;20730;-67
2022/04/05 09:35:29;;;;;;;3.72;1.85;;;22.40;34.40;;;;;;5011448;28;20959;-67
2022/04/05 09:38:16;;;;;;;3.97;1.70;;;22.50;34.80;;;;;;5011170;28;20389;-66
2022/04/05 09:40:43;;;;;;;3.20;1.80;;;22.50;35.30;;;;;;5011375;28;20396;-66
2022/04/05 09:43:17;;;;;;;2.22;1.60;;;22.50;34.80;;;;;;5010022;28;20409;-67
2022/04/05 09:45:55;;;;;;;3.67;1.90;;;22.50;34.40;;;;;;5013526;28;20395;-67
2022/04/05 09:48:26;;;;;;;2.85;1.63;;;22.50;34.20;;;;;;5015007;28;20389;-68
2022/04/05 09:51:12;;;;;;;4.95;1.70;;;22.50;34.30;;;;;;5015285;28;20389;-67
2022/04/05 09:53:46;;;;;;;3.92;1.73;;;22.50;34.30;;;;;;5015157;28;20404;-67
2022/04/05 09:56:19;;;;;;;2.65;1.55;;;22.50;34.40;;;;;;5015007;28;20400;-65
2022/04/05 09:59:04;;;;;;;4.67;1.60;;;22.50;34.50;;;;;;5030386;28;20389;-66
2022/04/05 10:01:32;;;;;;;2.27;1.60;;;22.50;34.40;;;;;;5015249;28;20522;-67
2022/04/05 10:04:10;;;;;;;3.45;1.55;;;22.50;34.40;;;;;;5014927;28;20944;-67
2022/04/05 10:06:43;;;;;;;2.17;1.40;;;22.60;34.30;;;;;;5014128;28;20919;-66
2022/04/05 10:09:10;;;;;;;3.30;1.58;;;22.60;33.90;;;;;;5014172;28;20483;-67
2022/04/05 10:11:37;;;;;;;2.67;1.70;;;22.60;34.00;;;;;;5014928;28;20900;-67
2022/04/05 10:14:04;;;;;;;3.00;1.50;;;22.60;33.80;;;;;;5014808;28;20405;-67
2022/04/05 10:16:31;;;;;;;2.83;1.48;;;22.60;33.40;;;;;;5014766;28;20403;-67
2022/04/05 10:19:04;;;;;;;2.67;1.40;;;22.60;33.70;;;;;;5014621;28;20389;-67
2022/04/05 10:21:34;;;;;;;3.40;1.40;;;22.50;33.20;;;;;;5014926;28;20963;-67
2022/04/05 10:24:01;;;;;;;2.72;1.20;;;22.50;32.80;;;;;;5014623;28;20392;-67
2022/04/05 10:26:29;;;;;;;3.55;1.50;;;22.50;32.70;;;;;;5013915;28;20479;-67
2022/04/05 10:29:00;;;;;;;3.13;1.40;;;22.50;32.60;;;;;;5029552;28;20915;-67
2022/04/05 10:31:45;;;;;;;2.17;1.23;;;22.40;32.80;;;;;;5014741;28;20422;-67
2022/04/05 10:34:28;;;;;;;2.58;1.30;;;22.50;32.80;;;;;;5014072;28;20377;-65
2022/04/05 10:37:07;;;;;;;3.00;1.30;;;22.40;32.90;;;;;;5012389;28;20404;-65
2022/04/05 10:39:32;;;;;;;3.60;1.27;;;22.50;33.00;;;;;;4999072;28;20398;-68
2022/04/05 10:42:13;;;;;;;2.30;1.50;;;22.50;33.10;;;;;;4993821;28;20430;-67
2022/04/05 10:44:41;;;;;;;2.60;1.20;;;22.50;33.20;;;;;;5003646;28;20432;-67
2022/04/05 10:47:07;;;;;;;4.07;1.37;;;22.60;32.90;;;;;;5008986;28;20409;-66
2022/04/05 10:49:45;;;;;;;2.45;1.27;;;22.60;32.90;;;;;;4993071;28;20426;-67
2022/04/05 10:52:12;;;;;;;1.85;1.20;;;22.50;33.00;;;;;;4995811;28;20485;-67
2022/04/05 10:54:47;;;;;;;2.20;1.30;;;22.60;32.90;;;;;;5009007;28;20385;-68
2022/04/05 10:57:30;;;;;;;2.70;1.30;;;22.60;33.00;;;;;;5003408;28;20925;-67
2022/04/05 11:00:09;;;;;;;3.90;1.25;;;22.50;33.00;;;;;;5003567;28;20413;-67
2022/04/05 11:02:39;;;;;;;2.60;1.30;;;22.60;32.80;;;;;;4964342;28;20482;-67
2022/04/05 11:05:27;;;;;;;3.10;1.20;;;22.60;32.90;;;;;;4964664;28;20427;-67
2022/04/05 11:08:02;;;;;;;1.73;1.20;;;22.60;32.70;;;;;;4961846;28;20408;-68
2022/04/05 11:10:37;;;;;;;1.92;1.20;;;22.60;32.60;;;;;;4963203;28;20912;-67
2022/04/05 11:13:08;;;;;;;2.35;1.10;;;22.60;32.50;;;;;;4962381;28;20937;-66
2022/04/05 11:15:46;;;;;;;1.63;1.05;;;22.60;32.60;;;;;;4962557;28;20867;-67
2022/04/05 11:18:16;;;;;;;3.25;1.20;;;22.60;32.80;;;;;;4962281;28;20404;-67
2022/04/05 11:20:44;;;;;;;2.23;1.27;;;22.60;32.60;;;;;;4962371;28;20463;-68
2022/04/05 11:23:11;;;;;;;2.35;1.10;;;22.60;32.50;;;;;;4964119;28;20425;-67
2022/04/05 11:25:37;;;;;;;2.95;1.05;;;22.60;32.70;;;;;;4974112;28;20495;-67
2022/04/05 11:28:16;;;;;;;2.80;1.40;;;22.50;32.50;;;;;;4974000;28;20486;-68
2022/04/05 11:30:51;;;;;;;2.55;1.20;;;22.50;32.70;;;;;;4974508;28;20395;-68
2022/04/05 11:33:26;;;;;;;2.27;1.07;;;22.60;33.10;;;;;;4974317;28;20998;-66
2022/04/05 11:36:02;;;;;;;5.80;1.23;;;22.60;32.00;;;;;;4974020;28;20388;-67
2022/04/05 11:38:49;;;;;;;2.97;1.30;;;22.50;33.30;;;;;;4973775;28;21046;-69
2022/04/05 11:41:31;;;;;;;2.92;1.10;;;22.50;32.80;;;;;;4963382;28;20424;-67
2022/04/05 11:43:58;;;;;;;2.87;1.20;;;22.50;32.50;;;;;;4973523;28;20416;-68
2022/04/05 11:46:28;;;;;;;2.67;1.20;;;22.50;32.40;;;;;;4973389;28;20399;-67
2022/04/05 11:48:59;;;;;;;4.15;1.30;;;22.50;32.30;;;;;;4973532;28;20392;-68
2022/04/05 11:51:27;;;;;;;1.63;0.90;;;22.50;32.30;;;;;;4973393;28;20400;-68
2022/04/05 11:54:09;;;;;;;3.00;2.60;;;22.50;32.30;;;;;;4969524;28;20425;-68
2022/04/05 11:56:35;;;;;;;3.20;1.90;;;22.60;32.30;;;;;;4987538;28;20484;-68
2022/04/05 11:59:08;;;;;;;3.70;2.10;;;22.60;32.30;;;;;;4973548;28;20443;-67
2022/04/05 12:01:37;;;;;;;8.45;7.30;;;22.60;32.30;;;;;;4998812;28;20460;-68
2022/04/05 12:04:06;;;;;;;6.30;3.58;;;22.60;32.20;;;;;;5011198;28;20459;-65
2022/04/05 12:06:34;;;;;;;4.17;3.10;;;22.60;32.20;;;;;;5013556;28;20380;-65
2022/04/05 12:09:06;;;;;;;4.00;2.43;;;22.60;32.20;;;;;;5027435;28;20408;-66
2022/04/05 12:11:33;;;;;;;3.90;2.30;;;22.60;32.20;;;;;;5013105;28;20477;-66
2022/04/05 12:14:01;;;;;;;3.42;3.03;;;22.60;32.20;;;;;;5012882;28;20822;-66
2022/04/05 12:16:29;;;;;;;3.17;2.25;;;22.60;32.30;;;;;;5027810;28;20429;-65
2022/04/05 12:18:56;;;;;;;4.03;1.98;;;22.60;32.80;;;;;;5012813;28;20776;-66
2022/04/05 12:21:24;;;;;;;2.35;1.70;;;22.60;33.70;;;;;;5028296;28;20508;-67
2022/04/05 12:23:50;;;;;;;3.30;1.80;;;22.70;33.70;;;;;;4998155;28;20456;-67
2022/04/05 12:26:24;;;;;;;4.85;2.00;;;22.70;34.00;;;;;;5002542;28;20393;-66
2022/04/05 12:28:55;;;;;;;2.80;1.85;;;22.70;34.20;;;;;;5000544;28;20724;-67
2022/04/05 12:31:28;;;;;;;2.83;1.98;;;22.70;34.60;;;;;;5003421;28;20429;-67
2022/04/05 12:33:56;;;;;;;3.72;1.60;;;22.70;33.90;;;;;;5000361;28;20490;-67
2022/04/05 12:36:24;;;;;;;2.60;1.63;;;22.70;34.30;;;;;;5001833;28;21039;-64
2022/04/05 12:38:49;;;;;;;2.95;2.10;;;22.70;34.10;;;;;;5001710;28;20392;-66
2022/04/05 12:41:16;;;;;;;3.37;1.80;;;22.70;33.10;;;;;;5001158;28;20413;-67
2022/04/05 12:43:43;;;;;;;2.40;1.67;;;22.70;33.90;;;;;;5003696;28;20413;-66
2022/04/05 12:46:11;;;;;;;2.80;2.08;;;22.70;33.90;;;;;;5000594;28;20886;-65
2022/04/05 12:48:37;;;;;;;2.85;2.00;;;22.70;33.20;;;;;;5003170;28;20399;-66
2022/04/05 12:51:03;;;;;;;6.15;4.30;;;22.60;33.40;;;;;;5000849;28;20788;-65
2022/04/05 12:53:33;;;;;;;3.80;2.92;;;22.60;32.50;;;;;;4997325;28;20503;-66
2022/04/05 12:56:02;;;;;;;3.60;2.50;;;22.60;33.10;;;;;;5000116;28;20393;-66